Time;durP1;ratioP1;P1;durP2;ratioP2;P2;SDS_P1;SDS_P2;PMS_P1;PMS_P2;Temp;Humidity;BMP_temperature;BMP_pressure;BME280_temperature;BME280_humidity;BME280_pressure;Samples;Min_cycle;Max_cycle;Signal;HPM_P1;HPM_P2
2023/04/07 00:00:25;;;;;;;33.60;22.88;;;7.30;99.90;;;;;;5073207;28;20044;-57
2023/04/07 00:02:51;;;;;;;32.70;22.23;;;7.30;99.90;;;;;;5073352;28;20037;-58
2023/04/07 00:05:17;;;;;;;32.47;21.77;;;7.30;99.90;;;;;;5073544;28;20048;-58
2023/04/07 00:07:43;;;;;;;31.85;22.48;;;6.80;99.90;;;;;;5073303;28;20033;-57
2023/04/07 00:10:09;;;;;;;32.47;22.67;;;6.80;99.90;;;;;;5073300;28;20489;-57
2023/04/07 00:12:35;;;;;;;34.70;23.08;;;6.80;99.90;;;;;;5073138;28;20507;-58
2023/04/07 00:15:01;;;;;;;38.15;24.33;;;7.30;99.90;;;;;;5073448;28;20087;-58
2023/04/07 00:17:26;;;;;;;34.47;23.90;;;7.30;99.90;;;;;;5072862;28;20070;-56
2023/04/07 00:19:52;;;;;;;36.40;23.30;;;6.90;99.90;;;;;;5072966;28;20041;-56
2023/04/07 00:22:18;;;;;;;34.33;23.55;;;7.40;99.90;;;;;;5072930;28;20082;-56
2023/04/07 00:24:43;;;;;;;32.63;23.73;;;7.30;99.90;;;;;;5072824;28;20067;-57
2023/04/07 00:27:10;;;;;;;35.00;23.17;;;6.90;99.90;;;;;;5072805;28;20470;-56
2023/04/07 00:29:35;;;;;;;35.38;23.50;;;6.80;99.90;;;;;;5072848;28;20074;-57
2023/04/07 00:32:01;;;;;;;34.58;24.67;;;7.40;99.90;;;;;;5072842;28;20048;-57
2023/04/07 00:34:27;;;;;;;37.33;24.83;;;7.20;99.90;;;;;;5071313;28;20489;-56
2023/04/07 00:36:52;;;;;;;36.88;25.20;;;7.40;99.90;;;;;;5072614;28;20369;-59
2023/04/07 00:39:19;;;;;;;37.25;23.42;;;7.30;99.90;;;;;;5071533;28;20115;-58
2023/04/07 00:41:45;;;;;;;35.05;23.77;;;6.90;99.90;;;;;;5072695;28;20435;-57
2023/04/07 00:44:11;;;;;;;35.47;24.55;;;6.80;99.90;;;;;;5072549;28;20040;-59
2023/04/07 00:46:37;;;;;;;36.65;24.65;;;6.70;99.90;;;;;;5072876;28;20052;-58
2023/04/07 00:49:03;;;;;;;34.13;23.95;;;6.80;99.90;;;;;;5072227;28;20443;-55
2023/04/07 00:51:28;;;;;;;35.88;24.27;;;6.70;99.90;;;;;;5072403;28;20040;-55
2023/04/07 00:53:55;;;;;;;37.70;25.10;;;7.00;99.90;;;;;;5072464;28;20040;-58
2023/04/07 00:56:20;;;;;;;36.50;24.80;;;7.10;99.90;;;;;;5071190;28;20047;-57
2023/04/07 00:58:46;;;;;;;34.42;24.40;;;7.20;99.90;;;;;;5072264;28;20048;-56
2023/04/07 01:01:20;;;;;;;37.20;24.27;;;7.30;99.90;;;;;;5071971;28;20040;-58
2023/04/07 01:04:07;;;;;;;36.78;25.50;;;6.80;99.90;;;;;;5071970;28;20036;-57
2023/04/07 01:06:42;;;;;;;35.30;23.88;;;7.20;99.90;;;;;;5072177;28;20040;-56
2023/04/07 01:09:21;;;;;;;36.70;25.67;;;7.40;99.90;;;;;;5072095;28;20079;-55
2023/04/07 01:11:49;;;;;;;38.63;26.75;;;6.80;99.90;;;;;;5072144;28;20118;-58
2023/04/07 01:14:18;;;;;;;36.38;26.10;;;7.00;99.90;;;;;;5071973;28;20086;-58
2023/04/07 01:16:47;;;;;;;40.80;26.88;;;7.40;99.90;;;;;;5072066;28;20044;-57
2023/04/07 01:19:21;;;;;;;43.33;28.40;;;7.40;99.90;;;;;;5072124;28;20279;-57
2023/04/07 01:21:50;;;;;;;38.95;25.60;;;7.20;99.90;;;;;;5071791;28;20531;-58
2023/04/07 01:24:54;;;;;;;38.65;25.92;;;7.10;99.90;;;;;;5072003;28;20033;-56
2023/04/07 01:27:22;;;;;;;41.45;26.90;;;6.90;99.90;;;;;;5071945;28;20084;-62
2023/04/07 01:29:49;;;;;;;42.40;26.98;;;7.20;99.90;;;;;;5071904;28;20044;-58
2023/04/07 01:32:19;;;;;;;44.22;27.55;;;7.40;99.90;;;;;;5071839;28;20045;-58
2023/04/07 01:34:50;;;;;;;38.40;26.38;;;7.30;99.90;;;;;;5072283;28;20124;-58
2023/04/07 01:37:16;;;;;;;40.70;26.25;;;6.80;99.90;;;;;;5071954;28;20041;-58
2023/04/07 01:39:42;;;;;;;38.40;26.27;;;6.80;99.90;;;;;;5070308;28;20062;-59
2023/04/07 01:42:09;;;;;;;38.70;26.65;;;7.00;99.90;;;;;;5071681;28;20033;-59
2023/04/07 01:44:36;;;;;;;39.40;27.42;;;6.80;99.90;;;;;;5071747;28;20041;-57
2023/04/07 01:47:02;;;;;;;39.83;25.90;;;6.80;99.90;;;;;;5072073;28;20044;-58
2023/04/07 01:49:30;;;;;;;42.55;28.05;;;7.00;99.90;;;;;;5071383;28;20078;-59
2023/04/07 01:51:57;;;;;;;41.10;27.10;;;7.10;99.90;;;;;;5071658;28;20047;-56
2023/04/07 01:54:23;;;;;;;38.10;26.92;;;6.80;99.90;;;;;;5070341;28;20119;-56
2023/04/07 01:56:48;;;;;;;38.08;26.73;;;6.90;99.90;;;;;;5071503;28;20149;-58
2023/04/07 01:59:14;;;;;;;40.25;27.20;;;7.40;99.90;;;;;;5071620;28;20508;-55
2023/04/07 02:01:40;;;;;;;39.40;26.38;;;7.40;99.90;;;;;;5071595;28;20067;-59
2023/04/07 02:04:29;;;;;;;43.95;26.33;;;7.20;99.90;;;;;;5071521;28;20097;-58
2023/04/07 02:07:00;;;;;;;37.15;26.48;;;7.00;99.90;;;;;;5071513;28;20492;-59
2023/04/07 02:09:28;;;;;;;43.50;26.50;;;7.20;99.90;;;;;;5071563;28;20491;-58
2023/04/07 02:11:58;;;;;;;40.08;25.85;;;6.80;99.90;;;;;;5071514;28;20044;-58
2023/04/07 02:14:24;;;;;;;41.72;26.27;;;6.80;99.90;;;;;;5074508;28;20044;-58
2023/04/07 02:16:52;;;;;;;39.35;26.50;;;6.90;99.90;;;;;;5075756;28;20101;-57
2023/04/07 02:19:18;;;;;;;39.20;26.42;;;6.90;99.90;;;;;;5075571;28;20101;-58
2023/04/07 02:21:45;;;;;;;36.92;25.70;;;7.00;99.90;;;;;;5074054;28;20049;-57
2023/04/07 02:24:10;;;;;;;40.47;26.45;;;7.10;99.90;;;;;;5075339;28;20033;-59
2023/04/07 02:26:36;;;;;;;37.17;24.33;;;7.30;99.90;;;;;;5074998;28;20483;-58
2023/04/07 02:29:03;;;;;;;41.42;26.67;;;7.30;99.90;;;;;;5075092;28;20049;-59
2023/04/07 02:31:29;;;;;;;37.97;26.23;;;6.80;99.90;;;;;;5074949;28;20630;-55
2023/04/07 02:33:55;;;;;;;39.28;25.77;;;7.30;99.90;;;;;;5075001;28;20115;-58
2023/04/07 02:36:20;;;;;;;38.90;26.38;;;6.90;99.90;;;;;;5074943;28;20043;-59
2023/04/07 02:38:46;;;;;;;37.35;25.77;;;7.10;99.90;;;;;;5075021;28;20098;-58
2023/04/07 02:41:12;;;;;;;37.53;24.92;;;7.30;99.90;;;;;;5074783;28;20033;-58
2023/04/07 02:43:37;;;;;;;37.28;25.95;;;6.90;99.90;;;;;;5074628;28;20054;-59
2023/04/07 02:46:03;;;;;;;41.40;26.42;;;7.40;99.90;;;;;;5074977;28;20041;-60
2023/04/07 02:48:29;;;;;;;38.30;25.85;;;7.20;99.90;;;;;;5074784;28;20487;-59
2023/04/07 02:50:55;;;;;;;43.10;27.13;;;7.40;99.90;;;;;;5073340;28;20504;-58
2023/04/07 02:53:20;;;;;;;38.58;26.23;;;7.00;99.90;;;;;;5074658;28;20036;-58
2023/04/07 02:55:46;;;;;;;39.35;25.60;;;7.40;99.90;;;;;;5074459;28;20072;-58
2023/04/07 02:58:12;;;;;;;41.20;26.65;;;7.40;99.90;;;;;;5074003;28;20044;-59
2023/04/07 03:00:37;;;;;;;38.70;25.52;;;7.40;99.90;;;;;;5074628;28;20400;-59
2023/04/07 03:03:03;;;;;;;36.80;25.35;;;7.30;99.90;;;;;;5074616;28;20082;-57
2023/04/07 03:05:29;;;;;;;39.97;26.02;;;7.10;99.90;;;;;;5074566;28;20040;-58
2023/04/07 03:07:55;;;;;;;40.13;26.77;;;7.00;99.90;;;;;;5074323;28;20539;-58
2023/04/07 03:10:20;;;;;;;36.53;25.42;;;7.20;99.90;;;;;;5073230;28;20426;-57
2023/04/07 03:12:46;;;;;;;39.97;26.40;;;6.90;99.90;;;;;;5074337;28;20527;-57
2023/04/07 03:15:12;;;;;;;36.95;25.98;;;6.90;99.90;;;;;;5073027;28;20040;-58
2023/04/07 03:17:37;;;;;;;38.50;25.42;;;6.90;99.90;;;;;;5074285;28;20124;-58
2023/04/07 03:20:03;;;;;;;37.00;25.35;;;7.40;99.90;;;;;;5074180;28;20039;-58
2023/04/07 03:22:29;;;;;;;37.13;23.63;;;6.90;99.90;;;;;;5074283;28;20045;-57
2023/04/07 03:24:55;;;;;;;37.65;25.02;;;6.80;99.90;;;;;;5074135;28;20047;-58
2023/04/07 03:27:20;;;;;;;37.95;24.58;;;7.30;99.90;;;;;;5072845;28;20516;-58
2023/04/07 03:29:46;;;;;;;37.25;24.65;;;7.10;99.90;;;;;;5074032;28;20417;-59
2023/04/07 03:32:12;;;;;;;38.65;26.42;;;7.20;99.90;;;;;;5073948;28;20044;-57
2023/04/07 03:34:37;;;;;;;37.85;26.00;;;6.90;99.90;;;;;;5073978;28;20040;-59
2023/04/07 03:37:03;;;;;;;36.67;24.88;;;7.40;99.90;;;;;;5073598;28;20040;-58
2023/04/07 03:39:29;;;;;;;41.13;27.48;;;7.40;99.90;;;;;;5073889;28;20477;-57
2023/04/07 03:41:56;;;;;;;40.47;26.45;;;6.90;99.90;;;;;;5073630;28;20110;-57
2023/04/07 03:44:22;;;;;;;38.35;26.70;;;7.40;99.90;;;;;;5073597;28;20051;-58
2023/04/07 03:46:49;;;;;;;38.00;27.25;;;7.20;99.90;;;;;;5073777;28;20040;-58
2023/04/07 03:49:15;;;;;;;40.42;27.45;;;7.40;99.90;;;;;;5073522;28;20052;-59
2023/04/07 03:51:41;;;;;;;40.97;27.90;;;6.80;99.90;;;;;;5072466;28;20040;-57
2023/04/07 03:54:06;;;;;;;37.78;25.67;;;7.40;99.90;;;;;;5073466;28;20040;-57
2023/04/07 03:56:32;;;;;;;35.78;25.65;;;6.80;99.90;;;;;;5073397;28;20097;-57
2023/04/07 03:58:58;;;;;;;36.13;25.55;;;6.80;99.90;;;;;;5073217;28;20044;-57
2023/04/07 04:01:23;;;;;;;35.28;24.77;;;7.30;99.90;;;;;;5073551;28;20072;-57
2023/04/07 04:03:50;;;;;;;36.67;25.40;;;7.00;99.90;;;;;;5073345;28;20089;-58
2023/04/07 04:06:15;;;;;;;38.85;25.73;;;7.40;99.90;;;;;;5071890;28;20040;-59
2023/04/07 04:08:41;;;;;;;34.58;24.75;;;7.20;99.90;;;;;;5073239;28;20045;-58
2023/04/07 04:11:07;;;;;;;34.33;24.38;;;7.10;99.90;;;;;;5073339;28;20028;-58
2023/04/07 04:13:32;;;;;;;36.42;24.30;;;7.30;99.90;;;;;;5073351;28;20108;-59
2023/04/07 04:15:58;;;;;;;38.10;25.27;;;6.90;99.90;;;;;;5073140;28;20098;-59
2023/04/07 04:18:24;;;;;;;38.58;26.05;;;7.20;99.90;;;;;;5072825;28;20056;-58
2023/04/07 04:20:49;;;;;;;34.45;24.55;;;7.10;99.90;;;;;;5072892;28;20036;-57
2023/04/07 04:23:15;;;;;;;38.90;25.13;;;7.40;99.90;;;;;;5072647;28;20083;-59
2023/04/07 04:25:41;;;;;;;38.10;25.88;;;7.00;99.90;;;;;;5071563;28;20128;-57
2023/04/07 04:28:06;;;;;;;34.20;24.60;;;6.80;99.90;;;;;;5072568;28;20040;-57
2023/04/07 04:30:32;;;;;;;37.72;24.52;;;7.40;99.90;;;;;;5073304;28;20048;-55
2023/04/07 04:32:58;;;;;;;38.60;27.50;;;7.00;99.90;;;;;;5072881;28;20036;-58
2023/04/07 04:35:24;;;;;;;41.60;26.15;;;7.20;99.90;;;;;;5072269;28;20072;-57
2023/04/07 04:37:50;;;;;;;39.08;26.92;;;7.00;99.90;;;;;;5072329;28;20059;-54
2023/04/07 04:40:16;;;;;;;38.85;26.35;;;7.40;99.90;;;;;;5072666;28;20040;-56
2023/04/07 04:42:41;;;;;;;38.95;26.75;;;7.20;99.90;;;;;;5072760;28;20047;-59
2023/04/07 04:45:08;;;;;;;42.10;27.15;;;7.40;99.90;;;;;;5071781;28;20074;-58
2023/04/07 04:47:33;;;;;;;39.88;26.55;;;6.80;99.90;;;;;;5072541;28;20495;-55
2023/04/07 04:49:59;;;;;;;38.40;26.20;;;7.30;99.90;;;;;;5072075;28;20080;-58
2023/04/07 04:52:26;;;;;;;40.85;26.73;;;7.00;99.90;;;;;;5072320;28;20475;-56
2023/04/07 04:54:52;;;;;;;38.03;26.88;;;6.80;99.90;;;;;;5072342;28;20083;-55
2023/04/07 04:57:18;;;;;;;39.30;27.23;;;7.40;99.90;;;;;;5071984;28;20084;-56
2023/04/07 04:59:44;;;;;;;38.47;26.67;;;6.80;99.90;;;;;;5072414;28;20076;-58
2023/04/07 05:02:10;;;;;;;39.63;26.90;;;7.30;99.90;;;;;;5072416;28;20119;-57
2023/04/07 05:04:35;;;;;;;42.10;27.73;;;7.20;99.90;;;;;;5072142;28;20136;-56
2023/04/07 05:07:01;;;;;;;41.45;27.80;;;7.30;99.90;;;;;;5072188;28;20575;-58
2023/04/07 05:09:27;;;;;;;40.25;26.27;;;6.70;99.90;;;;;;5072043;28;20044;-58
2023/04/07 05:11:52;;;;;;;39.22;25.17;;;7.30;99.90;;;;;;5072268;28;20043;-56
2023/04/07 05:14:18;;;;;;;37.90;23.15;;;7.30;99.90;;;;;;5072149;28;20477;-57
2023/04/07 05:16:44;;;;;;;34.38;21.90;;;6.90;99.90;;;;;;5054250;28;20056;-57
2023/04/07 05:19:10;;;;;;;32.88;21.80;;;6.80;99.90;;;;;;5071955;28;20057;-58
2023/04/07 05:21:35;;;;;;;33.45;21.23;;;7.00;99.90;;;;;;5071952;28;20043;-58
2023/04/07 05:24:01;;;;;;;31.58;20.85;;;6.80;99.90;;;;;;5071895;28;20040;-57
2023/04/07 05:26:26;;;;;;;31.67;19.50;;;6.70;99.90;;;;;;5071998;28;20052;-58
2023/04/07 05:28:52;;;;;;;31.80;18.77;;;6.80;99.90;;;;;;5071987;28;20040;-57
2023/04/07 05:31:18;;;;;;;34.55;20.60;;;7.30;99.90;;;;;;5071947;28;20074;-53
2023/04/07 05:33:43;;;;;;;36.28;24.27;;;6.80;99.90;;;;;;5071951;28;20151;-56
2023/04/07 05:36:09;;;;;;;30.77;21.30;;;6.70;99.90;;;;;;5071881;28;20045;-58
2023/04/07 05:38:35;;;;;;;33.28;21.83;;;6.90;99.90;;;;;;5071797;28;20493;-57
2023/04/07 05:41:00;;;;;;;30.60;21.00;;;6.80;99.90;;;;;;5071915;28;20119;-57
2023/04/07 05:43:26;;;;;;;33.63;22.02;;;6.80;99.90;;;;;;5071774;28;20542;-57
2023/04/07 05:45:52;;;;;;;32.17;21.58;;;6.90;99.90;;;;;;5071775;28;20037;-57
2023/04/07 05:48:17;;;;;;;35.13;21.35;;;7.30;99.90;;;;;;5073237;28;20400;-57
2023/04/07 05:50:43;;;;;;;30.70;20.67;;;7.30;99.90;;;;;;5075845;28;20055;-57
2023/04/07 05:53:09;;;;;;;31.15;20.52;;;7.10;99.90;;;;;;5075766;28;20124;-59
2023/04/07 05:55:35;;;;;;;30.88;21.08;;;6.80;99.90;;;;;;5074432;28;20554;-57
2023/04/07 05:58:01;;;;;;;30.88;20.70;;;7.20;99.90;;;;;;5074191;28;20352;-56
2023/04/07 06:00:26;;;;;;;30.42;20.73;;;7.30;99.90;;;;;;5074153;28;20492;-57
2023/04/07 06:02:53;;;;;;;32.08;20.95;;;7.30;99.90;;;;;;5074212;28;20049;-58
2023/04/07 06:05:18;;;;;;;31.60;20.55;;;6.90;99.90;;;;;;5074496;28;20055;-57
2023/04/07 06:07:44;;;;;;;31.00;21.05;;;7.10;99.90;;;;;;5074063;28;20120;-58
2023/04/07 06:10:10;;;;;;;32.38;20.63;;;7.30;99.90;;;;;;5073300;28;20123;-58
2023/04/07 06:12:35;;;;;;;29.85;20.40;;;7.30;99.90;;;;;;5074181;28;20045;-58
2023/04/07 06:15:04;;;;;;;26.13;18.40;;;6.90;99.90;;;;;;5073959;28;20055;-58
2023/04/07 06:17:30;;;;;;;29.33;18.63;;;7.10;99.90;;;;;;5073811;28;20048;-57
2023/04/07 06:19:56;;;;;;;29.75;20.15;;;7.30;99.90;;;;;;5073683;28;20401;-56
2023/04/07 06:22:21;;;;;;;29.10;19.83;;;7.40;99.90;;;;;;5073585;28;20040;-57
2023/04/07 06:24:47;;;;;;;29.33;20.80;;;7.10;99.90;;;;;;5072590;28;20484;-58
2023/04/07 06:27:13;;;;;;;29.10;19.20;;;7.40;99.90;;;;;;5073937;28;20441;-58
2023/04/07 06:29:39;;;;;;;28.73;18.58;;;7.30;99.90;;;;;;5073112;28;20040;-57
2023/04/07 06:32:05;;;;;;;26.52;18.42;;;7.00;99.90;;;;;;5063589;28;20044;-57
2023/04/07 06:34:31;;;;;;;29.88;20.40;;;7.40;99.90;;;;;;5060718;28;20053;-58
2023/04/07 06:36:56;;;;;;;28.40;19.92;;;7.40;99.90;;;;;;5064370;28;20078;-56
2023/04/07 06:39:25;;;;;;;30.00;19.83;;;7.20;99.90;;;;;;5061579;28;20845;-57
2023/04/07 06:41:51;;;;;;;32.45;20.08;;;7.00;99.90;;;;;;5062574;28;20044;-57
2023/04/07 06:44:16;;;;;;;29.75;19.40;;;7.40;99.90;;;;;;5065466;28;20037;-56
2023/04/07 06:46:43;;;;;;;27.30;18.95;;;7.50;99.90;;;;;;5061352;28;20075;-57
2023/04/07 06:49:09;;;;;;;28.02;18.48;;;7.50;99.90;;;;;;5063069;28;20048;-54
2023/04/07 06:51:34;;;;;;;28.20;19.27;;;7.30;99.90;;;;;;5063268;28;20268;-57
2023/04/07 06:54:00;;;;;;;26.63;18.30;;;7.30;99.90;;;;;;5063226;28;20044;-56
2023/04/07 06:56:26;;;;;;;26.98;18.30;;;7.30;99.90;;;;;;5066147;28;20043;-57
2023/04/07 06:58:52;;;;;;;26.17;17.65;;;7.10;99.90;;;;;;5072465;28;20495;-57
2023/04/07 07:01:17;;;;;;;24.58;16.38;;;7.60;99.90;;;;;;5064405;28;20047;-56
2023/04/07 07:03:43;;;;;;;25.98;16.98;;;7.60;99.90;;;;;;5064040;28;20167;-58
2023/04/07 07:06:09;;;;;;;25.83;17.45;;;7.40;99.90;;;;;;5060787;28;20025;-55
2023/04/07 07:08:35;;;;;;;23.90;16.73;;;7.60;99.90;;;;;;5053167;28;20583;-56
2023/04/07 07:11:01;;;;;;;25.30;17.30;;;7.40;99.90;;;;;;5062153;28;20162;-56
2023/04/07 07:13:27;;;;;;;25.45;16.92;;;7.30;99.90;;;;;;5067132;28;20044;-57
2023/04/07 07:15:53;;;;;;;23.45;16.33;;;7.50;99.90;;;;;;5072713;28;20071;-59
2023/04/07 07:18:19;;;;;;;26.55;17.58;;;7.60;99.90;;;;;;5072583;28;20075;-57
2023/04/07 07:20:45;;;;;;;22.83;16.90;;;7.80;99.90;;;;;;5073033;28;20307;-57
2023/04/07 07:23:11;;;;;;;23.75;16.08;;;7.50;99.90;;;;;;5072245;28;20444;-57
2023/04/07 07:25:36;;;;;;;23.35;16.13;;;7.60;99.90;;;;;;5072371;28;20086;-56
2023/04/07 07:28:04;;;;;;;23.40;15.70;;;7.60;99.90;;;;;;5072820;28;20074;-58
2023/04/07 07:30:30;;;;;;;26.67;16.50;;;7.90;99.90;;;;;;5072496;28;20456;-56
2023/04/07 07:32:56;;;;;;;24.85;16.95;;;7.90;99.90;;;;;;5072924;28;20044;-56
2023/04/07 07:35:24;;;;;;;22.83;16.52;;;8.00;99.90;;;;;;5070846;28;20087;-58
2023/04/07 07:37:50;;;;;;;24.48;16.38;;;7.70;99.90;;;;;;5072504;28;20047;-57
2023/04/07 07:40:16;;;;;;;22.70;16.48;;;7.90;99.90;;;;;;5072692;28;20130;-56
2023/04/07 07:42:43;;;;;;;23.13;17.00;;;7.90;99.90;;;;;;5072196;28;20080;-55
2023/04/07 07:45:09;;;;;;;23.35;16.33;;;7.80;99.90;;;;;;5071034;28;20048;-59
2023/04/07 07:47:36;;;;;;;23.67;15.45;;;8.00;99.90;;;;;;5072051;28;20048;-56
2023/04/07 07:50:03;;;;;;;25.48;17.15;;;8.10;99.90;;;;;;5072372;28;20045;-58
2023/04/07 07:52:29;;;;;;;24.02;17.02;;;8.10;99.90;;;;;;5071673;28;20040;-58
2023/04/07 07:54:55;;;;;;;23.20;16.58;;;8.50;99.90;;;;;;5072173;28;20043;-58
2023/04/07 07:57:20;;;;;;;22.60;15.57;;;8.20;99.90;;;;;;5071583;28;20447;-57
2023/04/07 07:59:46;;;;;;;21.58;15.70;;;8.70;99.90;;;;;;5071823;28;20043;-61
2023/04/07 08:02:12;;;;;;;23.33;16.33;;;8.50;99.90;;;;;;5071828;28;20048;-57
2023/04/07 08:04:38;;;;;;;22.27;15.23;;;8.50;99.90;;;;;;5072193;28;20385;-60
2023/04/07 08:07:03;;;;;;;22.80;15.77;;;8.60;99.90;;;;;;5071839;28;20185;-57
2023/04/07 08:09:31;;;;;;;21.27;15.43;;;8.60;99.90;;;;;;5070568;28;20326;-59
2023/04/07 08:11:57;;;;;;;19.50;14.38;;;8.50;99.90;;;;;;5070737;28;20046;-58
2023/04/07 08:14:22;;;;;;;19.83;14.85;;;8.50;99.90;;;;;;5072010;28;20477;-57
2023/04/07 08:16:48;;;;;;;19.23;13.60;;;8.70;99.90;;;;;;5073292;28;20045;-59
2023/04/07 08:19:14;;;;;;;21.58;14.20;;;8.60;99.90;;;;;;5073159;28;20055;-59
2023/04/07 08:21:40;;;;;;;19.38;13.80;;;8.60;99.90;;;;;;5071229;28;20044;-58
2023/04/07 08:24:08;;;;;;;20.00;13.38;;;8.60;99.90;;;;;;5073091;28;20040;-59
2023/04/07 08:26:34;;;;;;;21.40;14.27;;;8.70;99.90;;;;;;5072872;28;20048;-58
2023/04/07 08:29:00;;;;;;;18.83;13.75;;;8.80;99.90;;;;;;5072866;28;20051;-57
2023/04/07 08:31:26;;;;;;;20.23;13.15;;;8.90;99.90;;;;;;5072677;28;20048;-58
2023/04/07 08:33:56;;;;;;;17.55;12.77;;;8.90;99.90;;;;;;5071764;28;20040;-58
2023/04/07 08:36:23;;;;;;;18.63;13.00;;;8.90;99.90;;;;;;5072602;28;20048;-58
2023/04/07 08:38:49;;;;;;;19.42;12.68;;;9.10;99.90;;;;;;5072518;28;20036;-59
2023/04/07 08:41:29;;;;;;;18.05;13.18;;;8.90;99.90;;;;;;5071501;28;20036;-57
2023/04/07 08:43:56;;;;;;;18.73;13.38;;;9.00;99.90;;;;;;5072499;28;20396;-59
2023/04/07 08:46:24;;;;;;;18.25;12.73;;;9.00;99.90;;;;;;5071196;28;20116;-58
2023/04/07 08:48:51;;;;;;;16.48;11.80;;;8.90;99.90;;;;;;5071319;28;20416;-59
2023/04/07 08:51:32;;;;;;;16.35;11.52;;;9.00;99.90;;;;;;5071706;28;20040;-57
2023/04/07 08:54:08;;;;;;;18.60;11.98;;;8.80;99.90;;;;;;5072130;28;20085;-59
2023/04/07 08:56:35;;;;;;;17.05;11.98;;;8.80;99.90;;;;;;5071969;28;20040;-56
2023/04/07 08:59:01;;;;;;;17.65;12.13;;;9.10;99.90;;;;;;5072281;28;20048;-58
2023/04/07 09:01:29;;;;;;;18.08;13.05;;;9.00;99.90;;;;;;5072277;28;20044;-55
2023/04/07 09:03:57;;;;;;;17.77;12.60;;;9.10;99.90;;;;;;5065677;28;20103;-58
2023/04/07 09:06:24;;;;;;;18.83;13.48;;;9.30;99.90;;;;;;5051956;28;20037;-57
2023/04/07 09:08:49;;;;;;;18.77;13.20;;;9.20;99.90;;;;;;5051875;28;20032;-56
2023/04/07 09:11:15;;;;;;;17.23;12.27;;;9.10;99.90;;;;;;5052321;28;20047;-54
2023/04/07 09:13:41;;;;;;;18.23;13.32;;;9.30;99.90;;;;;;5052040;28;20469;-58
2023/04/07 09:16:06;;;;;;;17.95;13.60;;;9.30;99.90;;;;;;5050784;28;20462;-56
2023/04/07 09:18:33;;;;;;;20.80;14.30;;;9.40;99.90;;;;;;5051702;28;20497;-55
2023/04/07 09:21:03;;;;;;;19.27;13.73;;;9.50;99.90;;;;;;5051945;28;20052;-58
2023/04/07 09:23:35;;;;;;;19.77;14.18;;;9.50;99.90;;;;;;5050324;28;20448;-59
2023/04/07 09:26:17;;;;;;;18.80;13.65;;;9.50;99.90;;;;;;5051726;28;20525;-58
2023/04/07 09:28:46;;;;;;;20.02;14.07;;;9.90;99.90;;;;;;5051861;28;20433;-58
2023/04/07 09:31:11;;;;;;;20.13;14.30;;;9.80;99.90;;;;;;5051948;28;20126;-59
2023/04/07 09:33:37;;;;;;;19.45;14.82;;;9.90;99.90;;;;;;5054412;28;20033;-57
2023/04/07 09:36:07;;;;;;;19.67;13.43;;;10.00;99.90;;;;;;5061807;28;20040;-59
2023/04/07 09:38:37;;;;;;;20.98;14.18;;;10.10;99.90;;;;;;5054460;28;20041;-56
2023/04/07 09:41:10;;;;;;;19.95;14.45;;;9.90;99.90;;;;;;5050719;28;20114;-59
2023/04/07 09:43:38;;;;;;;20.50;15.05;;;9.90;99.90;;;;;;5051582;28;20080;-59
2023/04/07 09:46:15;;;;;;;21.60;14.63;;;9.90;99.90;;;;;;5051566;28;20037;-59
2023/04/07 09:48:43;;;;;;;21.50;15.23;;;10.00;99.90;;;;;;5062151;28;20037;-60
2023/04/07 09:51:16;;;;;;;21.15;15.35;;;10.10;99.90;;;;;;5070748;28;20048;-57
2023/04/07 09:53:46;;;;;;;18.33;14.50;;;10.30;99.90;;;;;;5070817;28;20029;-59
2023/04/07 09:56:17;;;;;;;18.48;14.20;;;10.50;99.90;;;;;;5060557;28;20045;-58
2023/04/07 09:58:45;;;;;;;19.65;14.88;;;10.50;99.90;;;;;;5059923;28;20084;-58
2023/04/07 10:01:11;;;;;;;22.30;15.27;;;10.50;99.90;;;;;;5060397;28;20039;-59
2023/04/07 10:03:38;;;;;;;18.40;13.55;;;10.40;99.90;;;;;;5065408;28;20063;-56
2023/04/07 10:06:05;;;;;;;18.65;13.05;;;10.40;99.90;;;;;;5054494;28;20265;-59
2023/04/07 10:08:33;;;;;;;17.83;12.80;;;10.40;99.90;;;;;;5050920;28;20047;-57
2023/04/07 10:11:01;;;;;;;19.70;13.90;;;10.30;99.90;;;;;;5051357;28;20041;-58
2023/04/07 10:13:29;;;;;;;18.45;13.93;;;10.40;99.90;;;;;;5049943;28;20110;-57
2023/04/07 10:15:55;;;;;;;20.25;14.63;;;10.40;99.90;;;;;;5053945;28;20244;-59
2023/04/07 10:18:24;;;;;;;19.30;13.60;;;10.30;99.90;;;;;;5059377;28;20045;-57
2023/04/07 10:20:51;;;;;;;17.50;12.27;;;10.40;99.90;;;;;;5051511;28;20048;-57
2023/04/07 10:23:42;;;;;;;18.67;12.90;;;10.30;99.90;;;;;;5050846;28;20037;-59
2023/04/07 10:26:08;;;;;;;17.77;13.30;;;10.70;99.90;;;;;;5050992;28;20045;-59
2023/04/07 10:28:40;;;;;;;16.52;12.10;;;10.80;99.90;;;;;;5051438;28;20044;-57
2023/04/07 10:31:06;;;;;;;18.77;12.60;;;10.70;99.90;;;;;;5051446;28;20106;-58
2023/04/07 10:33:47;;;;;;;17.67;12.23;;;10.80;99.90;;;;;;5051520;28;20452;-58
2023/04/07 10:36:13;;;;;;;16.50;11.60;;;10.60;99.90;;;;;;5054955;28;20040;-57
2023/04/07 10:38:41;;;;;;;15.25;11.05;;;10.70;99.90;;;;;;5055162;28;20124;-54
2023/04/07 10:41:38;;;;;;;17.30;11.98;;;10.60;99.90;;;;;;5054985;28;20045;-58
2023/04/07 10:44:05;;;;;;;15.65;10.48;;;10.60;99.90;;;;;;5054728;28;20474;-59
2023/04/07 10:46:59;;;;;;;15.10;9.73;;;10.50;99.90;;;;;;5054845;28;20087;-59
2023/04/07 10:49:25;;;;;;;17.00;11.75;;;10.70;99.90;;;;;;5069486;28;20102;-56
2023/04/07 10:52:10;;;;;;;15.90;9.50;;;10.70;99.90;;;;;;5074703;28;20480;-57
2023/04/07 10:54:36;;;;;;;15.32;9.32;;;10.90;99.90;;;;;;5074661;28;20108;-59
2023/04/07 10:57:06;;;;;;;12.75;9.15;;;10.80;99.90;;;;;;5074616;28;20561;-57
2023/04/07 10:59:33;;;;;;;14.05;9.52;;;10.90;99.90;;;;;;5074546;28;20059;-58
2023/04/07 11:02:11;;;;;;;12.90;9.07;;;10.80;99.90;;;;;;5074798;28;20037;-60
2023/04/07 11:04:38;;;;;;;12.45;8.00;;;10.90;99.90;;;;;;5074886;28;20051;-58
2023/04/07 11:07:03;;;;;;;12.90;8.68;;;10.90;99.90;;;;;;5074278;28;20123;-60
2023/04/07 11:09:29;;;;;;;13.45;9.50;;;10.90;99.90;;;;;;5074440;28;20123;-58
2023/04/07 11:11:55;;;;;;;13.45;9.30;;;10.90;99.90;;;;;;5074636;28;20123;-59
2023/04/07 11:14:28;;;;;;;12.80;9.48;;;10.90;99.90;;;;;;5074524;28;20040;-58
2023/04/07 11:16:54;;;;;;;13.60;9.68;;;10.90;99.90;;;;;;5074422;28;20111;-60
2023/04/07 11:19:20;;;;;;;12.40;8.82;;;11.10;99.90;;;;;;5074276;28;20040;-59
2023/04/07 11:21:46;;;;;;;15.90;10.63;;;11.20;99.90;;;;;;5062198;28;20061;-60
2023/04/07 11:24:36;;;;;;;16.60;11.15;;;11.20;99.90;;;;;;5062044;28;20074;-59
2023/04/07 11:27:02;;;;;;;16.40;11.18;;;11.50;99.90;;;;;;5064552;28;20044;-59
2023/04/07 11:29:32;;;;;;;16.85;11.15;;;11.50;99.90;;;;;;5064783;28;20396;-60
2023/04/07 11:31:59;;;;;;;16.45;11.60;;;11.70;99.90;;;;;;5059364;28;20058;-60
2023/04/07 11:34:30;;;;;;;16.38;11.75;;;11.80;99.90;;;;;;5052624;28;20150;-60
2023/04/07 11:37:00;;;;;;;17.77;11.68;;;11.90;99.90;;;;;;5053811;28;20102;-60
2023/04/07 11:39:34;;;;;;;15.70;11.55;;;11.70;99.90;;;;;;5054060;28;20049;-59
2023/04/07 11:41:59;;;;;;;15.65;11.45;;;11.70;99.90;;;;;;5052457;28;20045;-59
2023/04/07 11:44:25;;;;;;;16.33;11.18;;;11.70;99.90;;;;;;5053716;28;20123;-60
2023/04/07 11:46:56;;;;;;;16.35;11.88;;;11.90;99.90;;;;;;5052322;28;20174;-58
2023/04/07 11:49:23;;;;;;;15.27;10.75;;;12.00;99.90;;;;;;5069438;28;20146;-59
2023/04/07 11:52:00;;;;;;;14.23;10.52;;;12.20;99.90;;;;;;5073727;28;20072;-60
2023/04/07 11:54:26;;;;;;;14.45;10.15;;;12.10;99.90;;;;;;5073513;28;20044;-58
2023/04/07 11:56:54;;;;;;;14.27;10.75;;;12.10;99.90;;;;;;5073538;28;20032;-60
2023/04/07 11:59:22;;;;;;;14.50;10.55;;;12.30;99.90;;;;;;5071494;28;20052;-58
2023/04/07 12:01:49;;;;;;;13.75;9.88;;;12.40;99.90;;;;;;5073298;28;20110;-59
2023/04/07 12:04:16;;;;;;;13.70;10.20;;;12.40;99.90;;;;;;5073710;28;20492;-58
2023/04/07 12:06:42;;;;;;;15.63;9.90;;;12.50;99.90;;;;;;5072869;28;20063;-58
2023/04/07 12:09:24;;;;;;;12.40;8.38;;;12.30;99.90;;;;;;5071939;28;20051;-59
2023/04/07 12:11:50;;;;;;;14.80;9.75;;;12.40;99.90;;;;;;5073450;28;20373;-59
2023/04/07 12:14:15;;;;;;;23.92;14.13;;;12.30;99.90;;;;;;5072830;28;20055;-60
2023/04/07 12:16:41;;;;;;;15.57;9.75;;;12.40;99.90;;;;;;5073081;28;20048;-60
2023/04/07 12:19:07;;;;;;;13.27;9.32;;;12.20;99.90;;;;;;5073266;28;20041;-59
2023/04/07 12:21:33;;;;;;;12.77;9.15;;;12.20;99.90;;;;;;5072986;28;20400;-60
2023/04/07 12:23:58;;;;;;;13.55;9.82;;;12.30;99.90;;;;;;5071678;28;20429;-59
2023/04/07 12:26:24;;;;;;;13.30;9.40;;;12.40;99.90;;;;;;5072858;28;20032;-56
2023/04/07 12:28:50;;;;;;;13.95;9.45;;;12.50;99.90;;;;;;5071591;28;20439;-58
2023/04/07 12:31:16;;;;;;;14.50;9.90;;;12.60;99.90;;;;;;5072996;28;20400;-58
2023/04/07 12:33:42;;;;;;;13.60;9.45;;;12.70;99.90;;;;;;5072936;28;20049;-60
2023/04/07 12:36:07;;;;;;;12.45;9.07;;;12.70;99.90;;;;;;5072812;28;20112;-59